sensor_id;sensor_type;location;lat;lon;timestamp;pressure;altitude;pressure_sealevel;temperature;humidity
32456;BME280;18912;43.270;27.942;2022-09-14T00:00:44;97877.75;;;16.83;78.92
32456;BME280;18912;43.270;27.942;2022-09-14T00:03:10;97880.88;;;16.92;79.06
32456;BME280;18912;43.270;27.942;2022-09-14T00:05:36;97880.09;;;16.74;79.35
32456;BME280;18912;43.270;27.942;2022-09-14T00:08:02;97877.38;;;16.74;79.39
32456;BME280;18912;43.270;27.942;2022-09-14T00:10:27;97884.47;;;16.75;79.23
32456;BME280;18912;43.270;27.942;2022-09-14T00:12:53;97880.09;;;16.74;78.85
32456;BME280;18912;43.270;27.942;2022-09-14T00:15:18;97888.22;;;16.69;79.35
32456;BME280;18912;43.270;27.942;2022-09-14T00:17:44;97883.75;;;16.63;79.42
32456;BME280;18912;43.270;27.942;2022-09-14T00:20:10;97891.84;;;16.58;79.38
32456;BME280;18912;43.270;27.942;2022-09-14T00:22:36;97889.63;;;16.55;79.15
32456;BME280;18912;43.270;27.942;2022-09-14T00:25:01;97892.53;;;16.49;79.32
32456;BME280;18912;43.270;27.942;2022-09-14T00:27:27;97891.72;;;16.48;79.42
32456;BME280;18912;43.270;27.942;2022-09-14T00:29:52;97879.63;;;16.44;78.87
32456;BME280;18912;43.270;27.942;2022-09-14T00:32:18;97889.41;;;16.24;79.51
32456;BME280;18912;43.270;27.942;2022-09-14T00:34:43;97893.69;;;16.20;80.31
32456;BME280;18912;43.270;27.942;2022-09-14T00:37:10;97895.59;;;16.19;80.50
32456;BME280;18912;43.270;27.942;2022-09-14T00:39:36;97905.09;;;16.17;80.40
32456;BME280;18912;43.270;27.942;2022-09-14T00:42:03;97904.84;;;16.18;79.58
32456;BME280;18912;43.270;27.942;2022-09-14T00:46:58;97897.16;;;15.99;80.01
32456;BME280;18912;43.270;27.942;2022-09-14T00:49:36;97893.34;;;16.00;79.78
32456;BME280;18912;43.270;27.942;2022-09-14T00:52:10;97885.91;;;15.95;78.88
32456;BME280;18912;43.270;27.942;2022-09-14T00:54:42;97895.81;;;15.84;78.89
32456;BME280;18912;43.270;27.942;2022-09-14T00:57:09;97882.16;;;15.68;78.71
32456;BME280;18912;43.270;27.942;2022-09-14T00:59:37;97886.06;;;15.72;78.13
32456;BME280;18912;43.270;27.942;2022-09-14T01:02:04;97886.84;;;15.56;78.69
32456;BME280;18912;43.270;27.942;2022-09-14T01:04:31;97881.25;;;15.62;78.35
32456;BME280;18912;43.270;27.942;2022-09-14T01:18:20;97884.28;;;15.38;77.04
32456;BME280;18912;43.270;27.942;2022-09-14T01:21:14;97888.56;;;15.34;77.25
32456;BME280;18912;43.270;27.942;2022-09-14T01:24:11;97888.91;;;15.37;76.98
32456;BME280;18912;43.270;27.942;2022-09-14T01:35:18;97883.78;;;15.41;76.75
32456;BME280;18912;43.270;27.942;2022-09-14T01:38:04;97879.53;;;15.45;76.83
32456;BME280;18912;43.270;27.942;2022-09-14T01:40:38;97873.97;;;15.40;77.13
32456;BME280;18912;43.270;27.942;2022-09-14T01:43:10;97892.25;;;15.28;78.05
32456;BME280;18912;43.270;27.942;2022-09-14T01:45:44;97889.53;;;15.28;78.36
32456;BME280;18912;43.270;27.942;2022-09-14T01:48:13;97885.41;;;15.25;78.58
32456;BME280;18912;43.270;27.942;2022-09-14T01:50:46;97882.72;;;15.14;79.04
32456;BME280;18912;43.270;27.942;2022-09-14T01:55:49;97893.13;;;15.17;78.47
32456;BME280;18912;43.270;27.942;2022-09-14T01:58:25;97895.59;;;15.18;77.67
32456;BME280;18912;43.270;27.942;2022-09-14T02:00:54;97893.50;;;15.09;77.47
32456;BME280;18912;43.270;27.942;2022-09-14T02:03:26;97892.72;;;14.96;77.43
32456;BME280;18912;43.270;27.942;2022-09-14T02:05:55;97889.53;;;14.88;77.56
32456;BME280;18912;43.270;27.942;2022-09-14T02:08:27;97895.72;;;14.72;78.74
32456;BME280;18912;43.270;27.942;2022-09-14T02:10:54;97897.72;;;14.76;78.76
32456;BME280;18912;43.270;27.942;2022-09-14T02:13:21;97892.25;;;14.76;78.99
32456;BME280;18912;43.270;27.942;2022-09-14T02:15:47;97895.94;;;14.70;79.41
32456;BME280;18912;43.270;27.942;2022-09-14T02:18:13;97885.78;;;14.77;78.43
32456;BME280;18912;43.270;27.942;2022-09-14T02:20:45;97892.50;;;14.86;78.45
32456;BME280;18912;43.270;27.942;2022-09-14T02:23:12;97899.22;;;14.95;77.96
32456;BME280;18912;43.270;27.942;2022-09-14T02:25:37;97899.19;;;15.07;76.90
32456;BME280;18912;43.270;27.942;2022-09-14T02:28:05;97891.56;;;15.21;76.38
32456;BME280;18912;43.270;27.942;2022-09-14T02:30:42;97893.66;;;15.30;75.76
32456;BME280;18912;43.270;27.942;2022-09-14T02:33:22;97898.50;;;15.40;75.14
32456;BME280;18912;43.270;27.942;2022-09-14T02:35:53;97899.78;;;15.49;74.15
32456;BME280;18912;43.270;27.942;2022-09-14T02:38:36;97890.63;;;15.55;73.89
32456;BME280;18912;43.270;27.942;2022-09-14T02:41:28;97893.94;;;15.57;73.50
32456;BME280;18912;43.270;27.942;2022-09-14T02:47:00;97889.75;;;15.66;72.49
32456;BME280;18912;43.270;27.942;2022-09-14T02:49:54;97885.72;;;15.68;71.92
32456;BME280;18912;43.270;27.942;2022-09-14T02:52:40;97883.91;;;15.74;71.79
32456;BME280;18912;43.270;27.942;2022-09-14T02:55:09;97883.06;;;15.73;71.07
32456;BME280;18912;43.270;27.942;2022-09-14T02:58:07;97888.84;;;15.77;70.97
32456;BME280;18912;43.270;27.942;2022-09-14T03:00:41;97896.13;;;15.71;71.24
32456;BME280;18912;43.270;27.942;2022-09-14T03:03:09;97893.78;;;15.63;71.74
32456;BME280;18912;43.270;27.942;2022-09-14T03:05:35;97893.78;;;15.63;71.80
32456;BME280;18912;43.270;27.942;2022-09-14T03:08:02;97892.47;;;15.66;71.20
32456;BME280;18912;43.270;27.942;2022-09-14T03:10:29;97885.28;;;15.60;70.84
32456;BME280;18912;43.270;27.942;2022-09-14T03:12:55;97891.31;;;15.62;70.43
32456;BME280;18912;43.270;27.942;2022-09-14T03:15:21;97885.28;;;15.60;69.82
32456;BME280;18912;43.270;27.942;2022-09-14T03:17:47;97885.28;;;15.60;69.64
32456;BME280;18912;43.270;27.942;2022-09-14T03:20:19;97894.38;;;15.65;69.08
32456;BME280;18912;43.270;27.942;2022-09-14T03:22:45;97887.03;;;15.66;69.41
32456;BME280;18912;43.270;27.942;2022-09-14T03:25:11;97887.28;;;15.64;69.12
32456;BME280;18912;43.270;27.942;2022-09-14T03:27:37;97888.13;;;15.65;68.85
32456;BME280;18912;43.270;27.942;2022-09-14T03:30:06;97890.00;;;15.64;68.68
32456;BME280;18912;43.270;27.942;2022-09-14T03:32:32;97898.19;;;15.64;68.51
32456;BME280;18912;43.270;27.942;2022-09-14T03:34:58;97897.25;;;15.59;68.39
32456;BME280;18912;43.270;27.942;2022-09-14T03:37:24;97908.34;;;15.69;68.41
32456;BME280;18912;43.270;27.942;2022-09-14T03:39:50;97908.81;;;15.66;68.53
32456;BME280;18912;43.270;27.942;2022-09-14T03:42:16;97913.59;;;15.59;69.07
32456;BME280;18912;43.270;27.942;2022-09-14T03:44:41;97910.44;;;15.50;69.90
32456;BME280;18912;43.270;27.942;2022-09-14T03:47:07;97921.00;;;15.47;70.31
32456;BME280;18912;43.270;27.942;2022-09-14T03:49:33;97933.69;;;15.41;70.50
32456;BME280;18912;43.270;27.942;2022-09-14T03:51:59;97924.06;;;15.39;70.05
32456;BME280;18912;43.270;27.942;2022-09-14T03:54:25;97934.84;;;15.45;69.61
32456;BME280;18912;43.270;27.942;2022-09-14T03:56:52;97941.00;;;15.41;69.48
32456;BME280;18912;43.270;27.942;2022-09-14T03:59:18;97932.47;;;15.37;69.50
32456;BME280;18912;43.270;27.942;2022-09-14T04:01:44;97936.53;;;15.35;69.53
32456;BME280;18912;43.270;27.942;2022-09-14T04:04:09;97937.34;;;15.35;69.52
32456;BME280;18912;43.270;27.942;2022-09-14T04:06:35;97941.00;;;15.41;69.70
32456;BME280;18912;43.270;27.942;2022-09-14T04:09:00;97932.38;;;15.44;69.68
32456;BME280;18912;43.270;27.942;2022-09-14T04:11:26;97935.28;;;15.54;69.36
32456;BME280;18912;43.270;27.942;2022-09-14T04:13:53;97933.25;;;15.61;69.12
32456;BME280;18912;43.270;27.942;2022-09-14T04:16:19;97931.47;;;15.66;68.98
32456;BME280;18912;43.270;27.942;2022-09-14T04:18:45;97936.84;;;15.78;68.44
32456;BME280;18912;43.270;27.942;2022-09-14T04:21:17;97938.09;;;15.87;67.81
32456;BME280;18912;43.270;27.942;2022-09-14T04:23:43;97941.28;;;15.96;67.40
32456;BME280;18912;43.270;27.942;2022-09-14T04:26:14;97946.63;;;16.07;67.08
32456;BME280;18912;43.270;27.942;2022-09-14T04:28:41;97956.16;;;16.21;66.60
32456;BME280;18912;43.270;27.942;2022-09-14T04:31:08;97944.94;;;16.34;66.37
32456;BME280;18912;43.270;27.942;2022-09-14T04:33:35;97948.09;;;16.43;66.42
32456;BME280;18912;43.270;27.942;2022-09-14T04:36:04;97954.38;;;16.60;66.10
32456;BME280;18912;43.270;27.942;2022-09-14T04:38:31;97958.03;;;16.65;65.78
32456;BME280;18912;43.270;27.942;2022-09-14T04:40:57;97968.84;;;16.77;65.35
32456;BME280;18912;43.270;27.942;2022-09-14T04:43:24;97964.59;;;16.86;64.67
32456;BME280;18912;43.270;27.942;2022-09-14T04:45:51;97962.94;;;17.02;64.42
32456;BME280;18912;43.270;27.942;2022-09-14T04:48:17;97973.50;;;17.15;63.91
32456;BME280;18912;43.270;27.942;2022-09-14T04:50:43;97970.13;;;17.29;63.60
32456;BME280;18912;43.270;27.942;2022-09-14T04:53:09;97965.38;;;17.41;63.46
32456;BME280;18912;43.270;27.942;2022-09-14T04:55:35;97962.53;;;17.53;63.79
32456;BME280;18912;43.270;27.942;2022-09-14T04:58:03;97964.34;;;17.69;63.55
32456;BME280;18912;43.270;27.942;2022-09-14T05:00:28;97958.50;;;17.82;63.09
32456;BME280;18912;43.270;27.942;2022-09-14T05:02:54;97973.13;;;17.93;62.97
32456;BME280;18912;43.270;27.942;2022-09-14T05:05:20;97969.66;;;18.02;62.99
32456;BME280;18912;43.270;27.942;2022-09-14T05:07:45;97961.88;;;18.16;62.73
32456;BME280;18912;43.270;27.942;2022-09-14T05:10:11;97965.78;;;18.25;62.68
32456;BME280;18912;43.270;27.942;2022-09-14T05:12:36;97971.66;;;18.38;62.50
32456;BME280;18912;43.270;27.942;2022-09-14T05:15:02;97954.75;;;18.46;61.86
32456;BME280;18912;43.270;27.942;2022-09-14T05:17:27;97961.75;;;18.64;61.38
32456;BME280;18912;43.270;27.942;2022-09-14T05:19:53;97955.31;;;18.80;60.66
32456;BME280;18912;43.270;27.942;2022-09-14T05:22:18;97960.59;;;18.92;60.39
32456;BME280;18912;43.270;27.942;2022-09-14T05:24:45;97962.63;;;19.11;59.53
32456;BME280;18912;43.270;27.942;2022-09-14T05:27:11;97958.31;;;19.25;59.06
32456;BME280;18912;43.270;27.942;2022-09-14T05:29:36;97967.78;;;19.44;58.30
32456;BME280;18912;43.270;27.942;2022-09-14T05:32:04;97964.25;;;19.59;57.70
32456;BME280;18912;43.270;27.942;2022-09-14T05:34:30;97965.44;;;19.78;57.09
32456;BME280;18912;43.270;27.942;2022-09-14T05:36:55;97966.34;;;20.04;56.81
32456;BME280;18912;43.270;27.942;2022-09-14T05:39:21;97958.16;;;20.19;55.80
32456;BME280;18912;43.270;27.942;2022-09-14T05:41:48;97972.72;;;20.44;54.90
32456;BME280;18912;43.270;27.942;2022-09-14T05:44:14;97973.84;;;20.59;54.21
32456;BME280;18912;43.270;27.942;2022-09-14T05:46:39;97968.31;;;20.89;53.84
32456;BME280;18912;43.270;27.942;2022-09-14T05:49:05;97978.44;;;21.28;53.38
32456;BME280;18912;43.270;27.942;2022-09-14T05:51:30;97971.47;;;21.61;51.79
32456;BME280;18912;43.270;27.942;2022-09-14T05:53:57;97969.34;;;22.07;51.15
32456;BME280;18912;43.270;27.942;2022-09-14T05:56:23;97979.03;;;22.38;49.98
32456;BME280;18912;43.270;27.942;2022-09-14T05:58:49;97980.41;;;22.79;48.66
32456;BME280;18912;43.270;27.942;2022-09-14T06:01:17;97975.78;;;23.27;48.28
32456;BME280;18912;43.270;27.942;2022-09-14T06:03:44;97979.84;;;23.63;46.41
32456;BME280;18912;43.270;27.942;2022-09-14T06:06:11;97976.59;;;24.03;45.99
32456;BME280;18912;43.270;27.942;2022-09-14T06:08:37;97978.66;;;24.35;45.28
32456;BME280;18912;43.270;27.942;2022-09-14T06:11:09;97990.31;;;24.64;44.27
32456;BME280;18912;43.270;27.942;2022-09-14T06:13:36;97983.25;;;24.77;43.29
32456;BME280;18912;43.270;27.942;2022-09-14T06:16:03;97993.88;;;25.02;42.68
32456;BME280;18912;43.270;27.942;2022-09-14T06:18:34;97995.38;;;25.27;41.99
32456;BME280;18912;43.270;27.942;2022-09-14T06:21:00;97990.06;;;25.30;41.45
32456;BME280;18912;43.270;27.942;2022-09-14T06:23:27;97992.50;;;25.18;41.24
32456;BME280;18912;43.270;27.942;2022-09-14T06:25:56;97995.22;;;25.05;40.44
32456;BME280;18912;43.270;27.942;2022-09-14T06:28:23;97993.91;;;25.16;41.32
32456;BME280;18912;43.270;27.942;2022-09-14T06:30:49;98003.25;;;25.65;40.72
32456;BME280;18912;43.270;27.942;2022-09-14T06:33:15;97997.94;;;26.10;39.57
32456;BME280;18912;43.270;27.942;2022-09-14T06:35:41;98005.22;;;26.06;39.45
32456;BME280;18912;43.270;27.942;2022-09-14T06:38:07;98004.25;;;26.24;39.27
32456;BME280;18912;43.270;27.942;2022-09-14T06:40:33;98002.09;;;26.70;37.47
32456;BME280;18912;43.270;27.942;2022-09-14T06:42:58;98003.16;;;26.47;37.99
32456;BME280;18912;43.270;27.942;2022-09-14T06:45:30;98009.63;;;25.79;37.54
32456;BME280;18912;43.270;27.942;2022-09-14T06:47:57;98018.41;;;25.95;37.54
32456;BME280;18912;43.270;27.942;2022-09-14T06:50:23;98024.56;;;26.33;37.12
32456;BME280;18912;43.270;27.942;2022-09-14T06:52:49;98018.78;;;26.43;36.91
32456;BME280;18912;43.270;27.942;2022-09-14T06:55:14;98016.78;;;25.80;37.20
32456;BME280;18912;43.270;27.942;2022-09-14T06:57:40;98011.31;;;26.30;37.70
32456;BME280;18912;43.270;27.942;2022-09-14T07:00:06;98024.94;;;26.53;36.36
32456;BME280;18912;43.270;27.942;2022-09-14T07:02:31;98017.63;;;27.15;36.01
32456;BME280;18912;43.270;27.942;2022-09-14T07:04:59;98019.63;;;27.45;35.17
32456;BME280;18912;43.270;27.942;2022-09-14T07:07:25;98012.75;;;28.13;34.65
32456;BME280;18912;43.270;27.942;2022-09-14T07:09:51;98031.81;;;28.53;33.04
32456;BME280;18912;43.270;27.942;2022-09-14T07:12:16;98025.41;;;28.53;33.64
32456;BME280;18912;43.270;27.942;2022-09-14T07:14:41;98028.75;;;28.89;32.69
32456;BME280;18912;43.270;27.942;2022-09-14T07:17:07;98031.19;;;29.16;32.33
32456;BME280;18912;43.270;27.942;2022-09-14T07:19:32;98029.22;;;29.25;32.50
32456;BME280;18912;43.270;27.942;2022-09-14T07:21:59;98029.53;;;28.90;32.14
32456;BME280;18912;43.270;27.942;2022-09-14T07:24:25;98025.28;;;29.26;32.17
32456;BME280;18912;43.270;27.942;2022-09-14T07:26:51;98022.00;;;28.90;31.83
32456;BME280;18912;43.270;27.942;2022-09-14T07:29:18;98018.81;;;28.23;32.58
32456;BME280;18912;43.270;27.942;2022-09-14T07:31:46;98017.06;;;28.44;32.88
32456;BME280;18912;43.270;27.942;2022-09-14T07:34:12;98020.41;;;28.72;32.45
32456;BME280;18912;43.270;27.942;2022-09-14T07:36:38;98024.16;;;28.68;31.97
32456;BME280;18912;43.270;27.942;2022-09-14T07:39:05;98026.56;;;28.43;31.92
32456;BME280;18912;43.270;27.942;2022-09-14T07:41:34;98026.53;;;28.35;32.66
32456;BME280;18912;43.270;27.942;2022-09-14T07:44:01;98032.31;;;28.64;32.38
32456;BME280;18912;43.270;27.942;2022-09-14T07:46:29;98031.53;;;28.89;32.06
32456;BME280;18912;43.270;27.942;2022-09-14T07:48:59;98021.47;;;29.48;31.17
32456;BME280;18912;43.270;27.942;2022-09-14T07:51:25;98021.84;;;28.95;32.07
32456;BME280;18912;43.270;27.942;2022-09-14T07:53:52;98023.75;;;30.01;31.13
32456;BME280;18912;43.270;27.942;2022-09-14T07:56:17;98020.34;;;30.74;30.31
32456;BME280;18912;43.270;27.942;2022-09-14T07:58:44;98021.09;;;31.24;29.95
32456;BME280;18912;43.270;27.942;2022-09-14T08:01:12;98016.16;;;31.87;28.46
32456;BME280;18912;43.270;27.942;2022-09-14T08:03:39;98009.69;;;31.95;28.40
32456;BME280;18912;43.270;27.942;2022-09-14T08:06:08;98017.00;;;31.43;29.13
32456;BME280;18912;43.270;27.942;2022-09-14T08:08:37;98013.75;;;31.53;28.67
32456;BME280;18912;43.270;27.942;2022-09-14T08:11:04;98007.75;;;31.63;28.25
32456;BME280;18912;43.270;27.942;2022-09-14T08:13:32;98008.84;;;31.50;28.50
32456;BME280;18912;43.270;27.942;2022-09-14T08:15:58;98008.41;;;31.60;28.37
32456;BME280;18912;43.270;27.942;2022-09-14T08:18:25;98016.41;;;32.30;27.49
32456;BME280;18912;43.270;27.942;2022-09-14T08:20:51;98009.16;;;32.41;27.48
32456;BME280;18912;43.270;27.942;2022-09-14T08:23:17;98011.03;;;32.37;27.68
32456;BME280;18912;43.270;27.942;2022-09-14T08:25:42;98023.19;;;32.17;27.85
32456;BME280;18912;43.270;27.942;2022-09-14T08:28:08;98015.16;;;32.15;27.96
32456;BME280;18912;43.270;27.942;2022-09-14T08:30:33;98014.50;;;31.74;27.64
32456;BME280;18912;43.270;27.942;2022-09-14T08:32:59;98011.78;;;31.20;28.48
32456;BME280;18912;43.270;27.942;2022-09-14T08:35:24;98008.84;;;31.38;28.54
32456;BME280;18912;43.270;27.942;2022-09-14T08:37:49;98008.50;;;31.39;29.09
32456;BME280;18912;43.270;27.942;2022-09-14T08:40:15;98009.78;;;30.88;29.11
32456;BME280;18912;43.270;27.942;2022-09-14T08:42:43;98007.69;;;29.98;30.12
32456;BME280;18912;43.270;27.942;2022-09-14T08:45:12;98011.50;;;30.22;29.90
32456;BME280;18912;43.270;27.942;2022-09-14T08:47:41;98006.09;;;30.96;29.54
32456;BME280;18912;43.270;27.942;2022-09-14T08:50:13;98003.75;;;30.78;28.75
32456;BME280;18912;43.270;27.942;2022-09-14T08:52:43;98002.00;;;30.73;29.25
32456;BME280;18912;43.270;27.942;2022-09-14T09:00:44;98006.13;;;30.17;29.17
32456;BME280;18912;43.270;27.942;2022-09-14T09:11:02;97993.00;;;30.47;28.23
32456;BME280;18912;43.270;27.942;2022-09-14T09:13:33;97991.94;;;30.60;28.24
32456;BME280;18912;43.270;27.942;2022-09-14T09:16:03;97996.97;;;30.87;27.65
32456;BME280;18912;43.270;27.942;2022-09-14T09:18:43;97991.41;;;31.53;28.08
32456;BME280;18912;43.270;27.942;2022-09-14T09:21:18;98001.16;;;30.52;28.14
32456;BME280;18912;43.270;27.942;2022-09-14T09:23:44;97996.75;;;31.13;27.23
32456;BME280;18912;43.270;27.942;2022-09-14T09:26:30;97995.94;;;31.45;27.33
32456;BME280;18912;43.270;27.942;2022-09-14T09:28:59;97992.97;;;31.74;26.48
32456;BME280;18912;43.270;27.942;2022-09-14T09:31:32;97981.50;;;32.12;27.05
32456;BME280;18912;43.270;27.942;2022-09-14T09:33:59;97989.47;;;32.38;26.74
32456;BME280;18912;43.270;27.942;2022-09-14T09:36:25;97988.94;;;32.44;27.21
32456;BME280;18912;43.270;27.942;2022-09-14T09:38:52;97978.78;;;32.91;26.10
32456;BME280;18912;43.270;27.942;2022-09-14T09:41:20;97978.63;;;33.00;26.07
32456;BME280;18912;43.270;27.942;2022-09-14T09:44:07;97977.50;;;32.25;25.82
32456;BME280;18912;43.270;27.942;2022-09-14T09:46:58;97976.56;;;32.09;25.75
32456;BME280;18912;43.270;27.942;2022-09-14T09:51:54;97969.22;;;32.29;24.18
32456;BME280;18912;43.270;27.942;2022-09-14T09:54:41;97965.63;;;32.80;23.83
32456;BME280;18912;43.270;27.942;2022-09-14T09:57:35;97976.25;;;32.74;24.73
32456;BME280;18912;43.270;27.942;2022-09-14T10:00:18;97982.25;;;31.88;26.24
32456;BME280;18912;43.270;27.942;2022-09-14T10:02:44;97979.44;;;31.76;26.20
32456;BME280;18912;43.270;27.942;2022-09-14T10:07:52;97981.78;;;30.97;26.18
32456;BME280;18912;43.270;27.942;2022-09-14T10:10:23;97986.34;;;31.01;26.85
32456;BME280;18912;43.270;27.942;2022-09-14T10:12:53;97980.63;;;31.31;26.40
32456;BME280;18912;43.270;27.942;2022-09-14T10:15:24;97981.25;;;31.03;27.40
32456;BME280;18912;43.270;27.942;2022-09-14T10:25:45;97982.59;;;30.56;27.21
32456;BME280;18912;43.270;27.942;2022-09-14T10:28:29;97982.13;;;30.95;26.54
32456;BME280;18912;43.270;27.942;2022-09-14T10:33:25;97974.03;;;30.61;26.38
32456;BME280;18912;43.270;27.942;2022-09-14T10:38:46;97968.09;;;30.83;26.58
32456;BME280;18912;43.270;27.942;2022-09-14T10:51:30;97955.47;;;29.86;27.24
32456;BME280;18912;43.270;27.942;2022-09-14T10:59:27;97968.53;;;29.57;27.41
32456;BME280;18912;43.270;27.942;2022-09-14T11:04:58;97960.63;;;29.21;27.48
32456;BME280;18912;43.270;27.942;2022-09-14T11:07:36;97950.81;;;28.98;27.81
32456;BME280;18912;43.270;27.942;2022-09-14T11:23:53;97944.91;;;28.31;27.40
32456;BME280;18912;43.270;27.942;2022-09-14T11:26:38;97932.00;;;28.52;28.04
32456;BME280;18912;43.270;27.942;2022-09-14T11:29:33;97944.44;;;28.46;28.00
32456;BME280;18912;43.270;27.942;2022-09-14T11:32:09;97948.00;;;28.12;28.50
32456;BME280;18912;43.270;27.942;2022-09-14T11:34:40;97936.78;;;28.60;28.50
32456;BME280;18912;43.270;27.942;2022-09-14T11:37:15;97949.69;;;28.90;27.70
32456;BME280;18912;43.270;27.942;2022-09-14T11:40:00;97934.09;;;29.15;27.40
32456;BME280;18912;43.270;27.942;2022-09-14T11:42:32;97932.00;;;28.52;27.61
32456;BME280;18912;43.270;27.942;2022-09-14T11:45:05;97932.81;;;28.44;27.32
32456;BME280;18912;43.270;27.942;2022-09-14T11:47:43;97933.16;;;28.51;27.23
32456;BME280;18912;43.270;27.942;2022-09-14T11:52:37;97923.69;;;27.70;34.96
32456;BME280;18912;43.270;27.942;2022-09-14T11:55:16;97920.16;;;27.08;37.81
32456;BME280;18912;43.270;27.942;2022-09-14T11:57:45;97922.78;;;27.35;37.25
32456;BME280;18912;43.270;27.942;2022-09-14T12:05:42;97907.19;;;26.29;36.81
32456;BME280;18912;43.270;27.942;2022-09-14T12:08:47;97906.38;;;26.15;40.38
32456;BME280;18912;43.270;27.942;2022-09-14T12:13:38;97903.25;;;26.30;39.22
32456;BME280;18912;43.270;27.942;2022-09-14T12:16:05;97894.88;;;26.65;39.42
32456;BME280;18912;43.270;27.942;2022-09-14T12:18:35;97898.81;;;26.42;38.70
32456;BME280;18912;43.270;27.942;2022-09-14T12:28:49;97883.84;;;26.52;39.44
32456;BME280;18912;43.270;27.942;2022-09-14T12:31:31;97890.41;;;26.56;40.27
32456;BME280;18912;43.270;27.942;2022-09-14T12:34:23;97885.66;;;26.48;39.04
32456;BME280;18912;43.270;27.942;2022-09-14T12:46:54;97883.63;;;26.40;40.92
32456;BME280;18912;43.270;27.942;2022-09-14T12:49:38;97868.06;;;25.95;41.19
32456;BME280;18912;43.270;27.942;2022-09-14T12:52:16;97874.31;;;26.00;42.31
32456;BME280;18912;43.270;27.942;2022-09-14T12:55:15;97872.34;;;26.01;41.53
32456;BME280;18912;43.270;27.942;2022-09-14T12:57:47;97864.03;;;26.01;42.75
32456;BME280;18912;43.270;27.942;2022-09-14T13:00:18;97865.69;;;26.02;41.86
32456;BME280;18912;43.270;27.942;2022-09-14T13:05:32;97858.63;;;25.96;43.37
32456;BME280;18912;43.270;27.942;2022-09-14T13:07:59;97853.91;;;25.96;41.88
32456;BME280;18912;43.270;27.942;2022-09-14T13:10:26;97860.28;;;25.97;41.10
32456;BME280;18912;43.270;27.942;2022-09-14T13:12:55;97849.78;;;25.93;41.00
32456;BME280;18912;43.270;27.942;2022-09-14T13:15:38;97852.69;;;25.88;41.18
32456;BME280;18912;43.270;27.942;2022-09-14T13:20:51;97862.28;;;25.55;48.04
32456;BME280;18912;43.270;27.942;2022-09-14T13:23:28;97856.69;;;25.47;45.94
32456;BME280;18912;43.270;27.942;2022-09-14T13:25:54;97867.31;;;25.53;46.40
32456;BME280;18912;43.270;27.942;2022-09-14T13:28:20;97855.69;;;25.78;45.94
32456;BME280;18912;43.270;27.942;2022-09-14T13:30:59;97855.63;;;25.70;42.72
32456;BME280;18912;43.270;27.942;2022-09-14T13:33:26;97853.81;;;25.87;43.03
32456;BME280;18912;43.270;27.942;2022-09-14T13:35:54;97864.31;;;25.77;46.46
32456;BME280;18912;43.270;27.942;2022-09-14T13:38:28;97873.66;;;25.67;48.10
32456;BME280;18912;43.270;27.942;2022-09-14T13:41:02;97873.59;;;25.45;48.88
32456;BME280;18912;43.270;27.942;2022-09-14T13:43:28;97867.53;;;25.43;49.67
32456;BME280;18912;43.270;27.942;2022-09-14T13:45:54;97870.72;;;25.50;47.24
32456;BME280;18912;43.270;27.942;2022-09-14T13:48:20;97855.81;;;25.73;45.54
32456;BME280;18912;43.270;27.942;2022-09-14T13:50:49;97864.53;;;25.53;45.05
32456;BME280;18912;43.270;27.942;2022-09-14T13:58:45;97861.78;;;25.53;50.18
32456;BME280;18912;43.270;27.942;2022-09-14T14:01:11;97859.13;;;25.48;48.62
32456;BME280;18912;43.270;27.942;2022-09-14T14:03:47;97859.25;;;25.43;49.60
32456;BME280;18912;43.270;27.942;2022-09-14T14:06:33;97857.50;;;25.47;51.32
32456;BME280;18912;43.270;27.942;2022-09-14T14:09:08;97852.75;;;25.34;48.77
32456;BME280;18912;43.270;27.942;2022-09-14T14:11:44;97858.41;;;25.43;48.30
32456;BME280;18912;43.270;27.942;2022-09-14T14:14:24;97842.72;;;25.11;51.35
32456;BME280;18912;43.270;27.942;2022-09-14T14:17:09;97855.91;;;24.87;49.98
32456;BME280;18912;43.270;27.942;2022-09-14T14:19:45;97864.81;;;24.84;51.67
32456;BME280;18912;43.270;27.942;2022-09-14T14:24:41;97869.47;;;24.70;52.39
32456;BME280;18912;43.270;27.942;2022-09-14T14:27:26;97875.78;;;24.57;53.18
32456;BME280;18912;43.270;27.942;2022-09-14T14:29:53;97877.47;;;24.71;54.23
32456;BME280;18912;43.270;27.942;2022-09-14T14:32:19;97876.19;;;24.50;54.54
32456;BME280;18912;43.270;27.942;2022-09-14T14:34:44;97863.66;;;24.71;53.53
32456;BME280;18912;43.270;27.942;2022-09-14T14:37:10;97871.25;;;24.79;54.09
32456;BME280;18912;43.270;27.942;2022-09-14T14:39:36;97878.81;;;24.74;54.88
32456;BME280;18912;43.270;27.942;2022-09-14T14:42:02;97875.47;;;24.58;56.31
32456;BME280;18912;43.270;27.942;2022-09-14T14:44:28;97884.41;;;24.69;56.03
32456;BME280;18912;43.270;27.942;2022-09-14T14:46:55;97880.63;;;24.33;57.26
32456;BME280;18912;43.270;27.942;2022-09-14T14:49:20;97878.78;;;24.42;57.20
32456;BME280;18912;43.270;27.942;2022-09-14T14:51:49;97876.28;;;24.59;55.97
32456;BME280;18912;43.270;27.942;2022-09-14T14:54:15;97877.72;;;24.56;56.63
32456;BME280;18912;43.270;27.942;2022-09-14T14:56:46;97867.84;;;24.37;56.71
32456;BME280;18912;43.270;27.942;2022-09-14T15:01:44;97869.78;;;24.36;58.49
32456;BME280;18912;43.270;27.942;2022-09-14T15:04:09;97878.84;;;24.23;59.71
32456;BME280;18912;43.270;27.942;2022-09-14T15:06:35;97872.31;;;23.77;60.97
32456;BME280;18912;43.270;27.942;2022-09-14T15:09:00;97872.31;;;23.77;61.58
32456;BME280;18912;43.270;27.942;2022-09-14T15:11:26;97872.91;;;23.74;63.77
32456;BME280;18912;43.270;27.942;2022-09-14T15:13:51;97878.34;;;23.60;65.40
32456;BME280;18912;43.270;27.942;2022-09-14T15:16:17;97879.28;;;23.27;66.49
32456;BME280;18912;43.270;27.942;2022-09-14T15:18:43;97882.34;;;23.26;66.81